Cutler Bay, Florida
Current Conditions -  °F | °C
As of 10:53 PM on Friday 24 Oct 2014 (Local Time) from KTMB Reporting Station
Broken Clouds Broken Clouds  
Wind Chill: 76°   Ceiling: 3800
Heat Index: 76°   Visibility: 10mi
Dew Point: 68°   Wind: 13mph
Humidity: 76%   Direction: 350°N
Pressure: 29.87"   Gusts: NA
Location:  25.5586°N, 80.4556°W
Report Text: KTMB 250253Z AUTO 35011KT 10SM SCT030 BKN038 BKN046 24/20 A2987 RMK AO2 SLP112 T02440200 51013
Loading
Personal Weather Stations






























Interactive Weather Map New forecast layout! Learn more

10-Day Weather Forecast

Advertisements
Track Severe Weather on mobile